This is the latest recevied weather packets stored in our database for station/object E24BD-10. If no packets are shown the sender has not sent any weather packets the latest 1 day(s).
| Time | Temp. | Humidity | Pressure | Rain* | Wind** | Luminosity | Snow |
|---|---|---|---|---|---|---|---|
| 1836274456 | 33.89° C | 55% | 1004 hPa | - | 0 m/s | 0 W/m² | - |
| 1778058903 | 36.67° C | 51% | 995 hPa | - | 0 m/s | 0 W/m² | - |
| 1778057979 | 37.22° C | 52% | 995 hPa | - | 0 m/s | 0 W/m² | - |
| 1778057054 | 37.22° C | 51% | 995 hPa | - | 0 m/s | 0 W/m² | - |
| 1778056130 | 37.22° C | 51% | 995 hPa | - | 0 m/s | 0 W/m² | - |
| 1778055206 | 37.78° C | 51% | 996 hPa | - | 0 m/s | 0 W/m² | - |
| 1778054281 | 37.78° C | 51% | 996 hPa | - | 0 m/s | 0 W/m² | - |
| 1778053357 | 37.78° C | 49% | 996 hPa | - | 0 m/s | 0 W/m² | - |
| 1778052433 | 38.33° C | 48% | 996 hPa | - | 0 m/s | 0 W/m² | - |
| 1778051508 | 38.89° C | 48% | 996 hPa | - | 0 m/s | 0 W/m² | - |
| 1778050584 | 39.44° C | 47% | 996 hPa | - | 0 m/s | 0 W/m² | - |
| 1778049659 | 39.44° C | 46% | 996 hPa | - | 0 m/s | 0 W/m² | - |
| 1778048734 | 39.44° C | 46% | 996 hPa | - | 0 m/s | 0 W/m² | - |
| 1778047810 | 38.89° C | 46% | 996 hPa | - | 0 m/s | 0 W/m² | - |
| 1778046885 | 38.89° C | 46% | 997 hPa | - | 0 m/s | 0 W/m² | - |
| 1778045961 | 38.89° C | 44% | 997 hPa | - | 0 m/s | 0 W/m² | - |
| 1778045036 | 38.89° C | 45% | 997 hPa | - | 0 m/s | 0 W/m² | - |
| 1778044112 | 38.89° C | 47% | 998 hPa | - | 0 m/s | 0 W/m² | - |
| 1778043187 | 38.33° C | 47% | 998 hPa | - | 0 m/s | 0 W/m² | - |
| 1778042263 | 38.33° C | 48% | 998 hPa | - | 0 m/s | 0 W/m² | - |
| 1778041338 | 37.78° C | 49% | 998 hPa | - | 0 m/s | 0 W/m² | - |
| 1778040414 | 37.78° C | 49% | 998 hPa | - | 0 m/s | 0 W/m² | - |
| 1778039489 | 37.22° C | 50% | 998 hPa | - | 0 m/s | 0 W/m² | - |
| 1778038565 | 37.22° C | 51% | 999 hPa | - | 0 m/s | 0 W/m² | - |
| 1778037640 | 36.67° C | 52% | 999 hPa | - | 0 m/s | 0 W/m² | - |
* Rain since midnight (hover to see other rain measurements)
** Current wind speed in m/s (hover to see current wind gust speed)